Moreauville, Louisiana
Current Conditions -  °F | °C
As of 12:53 PM on Friday 21 Nov 2014 (Local Time) from KESF Reporting Station
Few Clouds Few Clouds  
Wind Chill: 73°   Ceiling: Unl
Heat Index: 73°   Visibility: 10mi
Dew Point: 45°   Wind: 15mph
Humidity: 37%   Direction: 130°SE
Pressure: 30.21"   Gusts: 18mph
Location:  31.03°N, 91.98°W
Report Text: KESF 211853Z AUTO 13013G16KT 10SM FEW080 23/07 A3021 RMK AO2 SLP228 T02280072
Loading
Personal Weather Stations






























Interactive Weather Map New forecast layout! Learn more

10-Day Weather Forecast

Advertisements
Track Severe Weather on mobile